createdAt,value
2022-10-13T00:01:05.175Z,34
2022-10-13T00:16:05.550Z,33
2022-10-13T00:31:05.045Z,32
2022-10-13T00:46:05.391Z,32
2022-10-13T01:01:05.534Z,29
2022-10-13T01:16:04.642Z,38
2022-10-13T01:31:04.875Z,39
2022-10-13T01:46:04.871Z,32
2022-10-13T02:01:05.139Z,32
2022-10-13T02:16:05.378Z,29
2022-10-13T02:31:05.457Z,29
2022-10-13T02:46:04.734Z,26
2022-10-13T03:01:05.096Z,22
2022-10-13T03:16:05.368Z,22
2022-10-13T03:31:05.556Z,22
2022-10-13T03:46:04.503Z,26
2022-10-13T04:01:05.651Z,29
2022-10-13T04:16:04.928Z,32
2022-10-13T04:31:05.380Z,34
2022-10-13T04:46:05.443Z,34
2022-10-13T05:01:05.577Z,27
2022-10-13T05:16:05.044Z,26
2022-10-13T05:31:05.224Z,26
2022-10-13T05:46:05.114Z,27
2022-10-13T06:01:05.136Z,37
2022-10-13T06:16:04.585Z,40
2022-10-13T06:31:05.424Z,40
2022-10-13T06:46:05.488Z,28
2022-10-13T07:01:04.716Z,27
2022-10-13T07:16:05.063Z,23
2022-10-13T07:31:04.681Z,21
2022-10-13T07:46:04.979Z,21
2022-10-13T08:01:05.642Z,20
2022-10-13T08:16:04.882Z,16
2022-10-13T08:31:05.448Z,15
2022-10-13T08:46:04.483Z,14
2022-10-13T09:01:05.831Z,13
2022-10-13T09:16:05.186Z,13
2022-10-13T09:31:08.091Z,12
2022-10-13T09:46:04.933Z,11
2022-10-13T10:01:05.629Z,9
2022-10-13T10:16:05.750Z,9
2022-10-13T10:31:05.292Z,9
2022-10-13T10:46:05.231Z,9
2022-10-13T11:01:05.407Z,7
2022-10-13T11:16:05.615Z,6
2022-10-13T11:31:04.811Z,6
2022-10-13T11:46:05.280Z,3
2022-10-13T12:01:05.335Z,4
2022-10-13T12:16:05.625Z,7
2022-10-13T12:31:04.747Z,6
2022-10-13T12:46:04.946Z,10
2022-10-13T13:01:04.982Z,10
2022-10-13T13:16:05.054Z,10
2022-10-13T13:31:05.803Z,12
2022-10-13T13:46:05.335Z,11
2022-10-13T14:01:05.480Z,11
2022-10-13T14:16:05.622Z,14
2022-10-13T14:31:05.402Z,16
2022-10-13T14:46:05.650Z,15
2022-10-13T15:01:04.751Z,13
2022-10-13T15:16:05.356Z,13
2022-10-13T15:31:05.218Z,13
2022-10-13T15:46:05.183Z,14
2022-10-13T16:01:04.890Z,15
2022-10-13T16:16:05.146Z,18
2022-10-13T16:31:05.393Z,21
2022-10-13T16:46:05.526Z,21
2022-10-13T17:01:05.378Z,22
2022-10-13T17:16:05.608Z,20
2022-10-13T17:31:04.945Z,20
2022-10-13T17:46:24.233Z,21
2022-10-13T18:01:13.195Z,15
2022-10-13T18:16:04.975Z,15
2022-10-13T18:31:05.549Z,16
2022-10-13T18:46:05.564Z,16
2022-10-13T19:01:05.284Z,20
2022-10-13T19:16:05.335Z,17
2022-10-13T19:31:05.086Z,16
2022-10-13T19:46:05.134Z,17
2022-10-13T20:01:05.483Z,17
2022-10-13T20:16:04.692Z,18
2022-10-13T20:31:05.230Z,21
2022-10-13T20:46:05.583Z,21
2022-10-13T21:01:04.965Z,20
2022-10-13T21:16:04.690Z,20
2022-10-13T21:31:05.313Z,22
2022-10-13T21:46:05.346Z,20
2022-10-13T22:01:05.683Z,23
2022-10-13T22:16:04.948Z,24
2022-10-13T22:31:05.070Z,24
2022-10-13T22:46:05.528Z,25
2022-10-13T23:01:05.562Z,27
2022-10-13T23:16:05.015Z,26
2022-10-13T23:31:04.946Z,24
2022-10-13T23:46:05.153Z,33
